createdAt,value
2023-02-25T00:01:37.261Z,14.50
2023-02-25T00:04:04.502Z,18.10
2023-02-25T00:06:31.479Z,13.70
2023-02-25T00:08:58.284Z,19.60
2023-02-25T00:11:27.026Z,19.00
2023-02-25T00:13:55.594Z,16.90
2023-02-25T00:16:26.723Z,19.70
2023-02-25T00:18:56.008Z,22.30
2023-02-25T00:21:23.964Z,16.40
2023-02-25T00:24:00.078Z,18.00
2023-02-25T00:26:31.426Z,18.40
2023-02-25T00:28:58.429Z,17.70
2023-02-25T00:31:25.976Z,18.30
2023-02-25T00:33:54.144Z,20.30
2023-02-25T00:36:26.455Z,17.20
2023-02-25T00:38:56.790Z,16.70
2023-02-25T00:41:30.960Z,17.50
2023-02-25T00:44:00.457Z,18.30
2023-02-25T00:46:28.926Z,19.90
2023-02-25T00:48:55.872Z,23.60
2023-02-25T00:51:25.775Z,17.10
2023-02-25T00:53:54.560Z,19.70
2023-02-25T00:56:21.826Z,20.20
2023-02-25T00:58:50.827Z,22.70
2023-02-25T01:01:27.311Z,23.90
2023-02-25T01:03:56.886Z,21.10
2023-02-25T01:06:28.639Z,25.90
2023-02-25T01:08:57.422Z,24.30
2023-02-25T01:11:30.946Z,24.00
2023-02-25T01:14:00.746Z,18.50
2023-02-25T01:16:30.313Z,13.70
2023-02-25T01:18:59.874Z,11.70
2023-02-25T01:21:30.770Z,14.40
2023-02-25T01:24:22.289Z,11.70
2023-02-25T01:26:51.895Z,9.50
2023-02-25T01:29:26.593Z,12.70
2023-02-25T01:31:55.429Z,13.20
2023-02-25T01:34:23.616Z,14.10
2023-02-25T01:36:51.142Z,12.20
2023-02-25T01:39:20.131Z,12.90
2023-02-25T01:41:51.305Z,11.00
2023-02-25T01:44:31.866Z,14.30
2023-02-25T01:46:59.681Z,12.40
2023-02-25T01:49:29.598Z,16.10
2023-02-25T01:52:17.146Z,13.40
2023-02-25T01:54:45.958Z,15.30
2023-02-25T01:57:17.759Z,16.70
2023-02-25T01:59:46.475Z,11.20
2023-02-25T02:02:16.087Z,14.80
2023-02-25T02:04:45.129Z,15.30
2023-02-25T02:07:12.438Z,14.90
2023-02-25T02:09:40.908Z,14.60
2023-02-25T02:12:08.466Z,15.90
2023-02-25T02:14:42.428Z,19.00
2023-02-25T02:17:30.284Z,19.30
2023-02-25T02:20:00.116Z,31.60
2023-02-25T02:22:45.359Z,40.30
2023-02-25T02:25:27.564Z,43.40
2023-02-25T02:28:33.007Z,42.80
2023-02-25T02:31:18.384Z,43.30
2023-02-25T02:33:45.348Z,40.30
2023-02-25T02:36:18.099Z,41.90
2023-02-25T02:39:10.670Z,44.60
2023-02-25T02:42:01.069Z,42.10
2023-02-25T02:44:46.949Z,38.70
2023-02-25T02:47:38.351Z,36.10
2023-02-25T02:50:38.003Z,32.50
2023-02-25T02:53:27.142Z,30.30
2023-02-25T02:55:58.582Z,27.80
2023-02-25T02:58:25.498Z,27.00
2023-02-25T03:01:03.127Z,24.20
2023-02-25T03:03:37.879Z,22.50
2023-02-25T03:06:13.384Z,23.60
2023-02-25T03:08:47.831Z,25.30
2023-02-25T03:11:15.478Z,28.20
2023-02-25T03:13:42.423Z,24.60
2023-02-25T03:16:18.351Z,23.80
2023-02-25T03:18:54.190Z,19.40
2023-02-25T03:21:27.148Z,17.70
2023-02-25T03:23:54.866Z,16.60
2023-02-25T03:26:30.354Z,15.50
2023-02-25T03:28:57.731Z,14.50
2023-02-25T03:31:27.578Z,11.90
2023-02-25T03:34:00.566Z,11.90
2023-02-25T03:36:49.828Z,13.10
2023-02-25T03:39:21.380Z,10.30
2023-02-25T03:41:53.917Z,12.70
2023-02-25T03:44:32.263Z,13.50
2023-02-25T03:47:02.035Z,11.90
2023-02-25T03:49:43.951Z,11.00
2023-02-25T03:52:17.347Z,12.10
2023-02-25T03:54:44.194Z,15.20
2023-02-25T03:57:11.001Z,14.30
2023-02-25T03:59:37.985Z,13.40
2023-02-25T04:02:05.665Z,12.10
2023-02-25T04:04:32.697Z,9.80
2023-02-25T04:06:59.591Z,10.10
2023-02-25T04:09:26.530Z,8.90
2023-02-25T04:11:57.361Z,8.90
2023-02-25T04:14:25.262Z,9.20
2023-02-25T04:16:52.183Z,10.40
2023-02-25T04:19:19.222Z,12.40
2023-02-25T04:21:46.824Z,12.20
2023-02-25T04:24:13.824Z,12.10
2023-02-25T04:26:40.656Z,12.00
2023-02-25T04:29:08.120Z,9.50
2023-02-25T04:31:35.150Z,11.20
2023-02-25T04:34:02.346Z,7.20
2023-02-25T04:36:35.100Z,10.20
2023-02-25T04:39:05.052Z,13.30
2023-02-25T04:41:34.310Z,15.30
2023-02-25T04:44:04.278Z,12.50
2023-02-25T04:46:33.121Z,13.80
2023-02-25T04:49:00.366Z,9.60
2023-02-25T04:51:27.749Z,13.10
2023-02-25T04:53:54.649Z,12.90
2023-02-25T04:56:22.168Z,12.00
2023-02-25T04:58:49.347Z,11.70
2023-02-25T05:01:16.547Z,16.30
2023-02-25T05:03:43.991Z,19.70
2023-02-25T05:06:11.476Z,16.40
2023-02-25T05:08:38.452Z,15.70
2023-02-25T05:11:06.424Z,12.10
2023-02-25T05:13:33.368Z,10.50
2023-02-25T05:16:09.021Z,10.50
2023-02-25T05:18:43.427Z,9.20
2023-02-25T05:21:22.267Z,9.00
2023-02-25T05:23:51.512Z,9.70
2023-02-25T05:26:23.471Z,10.70
2023-02-25T05:28:56.040Z,10.70
2023-02-25T05:31:25.095Z,10.90
2023-02-25T05:33:53.075Z,11.00
2023-02-25T05:36:20.329Z,10.30
2023-02-25T05:38:47.339Z,12.20
2023-02-25T05:41:15.388Z,11.60
2023-02-25T05:43:42.758Z,12.60
2023-02-25T05:46:12.129Z,12.30
2023-02-25T05:48:41.280Z,12.90
2023-02-25T05:51:12.109Z,12.40
2023-02-25T05:53:39.547Z,11.70
2023-02-25T05:56:08.813Z,8.80
2023-02-25T05:58:36.719Z,8.00
2023-02-25T06:01:13.742Z,8.60
2023-02-25T06:03:41.893Z,7.80
2023-02-25T06:06:13.141Z,10.60
2023-02-25T06:08:42.147Z,11.20
2023-02-25T06:11:09.330Z,11.40
2023-02-25T06:13:36.626Z,9.20
2023-02-25T06:16:06.075Z,11.10
2023-02-25T06:18:37.020Z,10.70
2023-02-25T06:23:37.639Z,12.50
2023-02-25T06:26:06.896Z,9.00
2023-02-25T06:28:35.581Z,8.20
2023-02-25T06:31:02.961Z,7.20
2023-02-25T06:33:33.932Z,8.70
2023-02-25T06:36:00.903Z,8.70
2023-02-25T06:38:27.922Z,8.00
2023-02-25T06:40:54.866Z,6.10
2023-02-25T06:43:21.704Z,6.50
2023-02-25T06:45:48.579Z,9.00
2023-02-25T06:48:15.485Z,8.30
2023-02-25T06:50:42.862Z,8.70
2023-02-25T06:53:09.889Z,6.30
2023-02-25T06:55:40.171Z,6.90
2023-02-25T06:58:07.259Z,9.70
2023-02-25T07:00:34.111Z,4.10
2023-02-25T07:03:03.294Z,9.70
2023-02-25T07:05:30.149Z,20.50
2023-02-25T07:07:56.971Z,142.90
2023-02-25T07:10:23.944Z,51.80
2023-02-25T07:12:52.400Z,23.60
2023-02-25T07:15:20.938Z,364.00
2023-02-25T07:17:48.116Z,410.40
2023-02-25T07:20:15.828Z,571.90
2023-02-25T07:22:42.825Z,612.30
2023-02-25T07:25:14.010Z,296.00
2023-02-25T07:27:44.526Z,98.40
2023-02-25T07:30:13.460Z,65.70
2023-02-25T07:32:41.750Z,29.10
2023-02-25T07:35:09.915Z,56.00
2023-02-25T07:37:36.983Z,13.80
2023-02-25T07:40:13.148Z,76.50
2023-02-25T07:42:43.556Z,48.50
2023-02-25T07:45:11.356Z,69.50
2023-02-25T07:47:39.214Z,42.80
2023-02-25T07:50:09.453Z,90.10
2023-02-25T07:55:07.712Z,22.70
2023-02-25T07:57:35.972Z,36.20
2023-02-25T08:00:05.184Z,32.30
2023-02-25T08:02:32.140Z,69.20
2023-02-25T08:05:00.797Z,29.60
2023-02-25T08:07:29.707Z,37.10
2023-02-25T08:09:56.724Z,15.30
2023-02-25T08:12:23.676Z,10.10
2023-02-25T08:14:50.621Z,19.70
2023-02-25T08:17:18.586Z,10.90
2023-02-25T08:19:45.424Z,14.50
2023-02-25T08:22:12.589Z,19.30
2023-02-25T08:24:40.532Z,14.00
2023-02-25T08:27:11.595Z,21.80
2023-02-25T08:32:09.848Z,5.70
2023-02-25T08:34:36.834Z,5.70
2023-02-25T08:37:03.641Z,7.80
2023-02-25T08:39:31.507Z,6.20
2023-02-25T08:41:58.662Z,9.90
2023-02-25T08:44:25.497Z,10.80
2023-02-25T08:46:52.460Z,13.00
2023-02-25T08:49:19.387Z,10.70
2023-02-25T08:51:46.933Z,13.60
2023-02-25T08:54:14.701Z,10.50
2023-02-25T08:56:45.044Z,5.50
2023-02-25T09:01:45.275Z,18.30
2023-02-25T09:06:40.703Z,10.30
2023-02-25T09:09:07.845Z,9.90
2023-02-25T09:11:34.787Z,8.30
2023-02-25T09:14:01.704Z,9.60
2023-02-25T09:16:30.301Z,7.00
2023-02-25T09:18:57.547Z,7.20
2023-02-25T09:21:25.129Z,10.70
2023-02-25T09:23:52.666Z,7.50
2023-02-25T09:26:21.062Z,11.00
2023-02-25T09:28:49.649Z,10.80
2023-02-25T09:31:17.917Z,9.00
2023-02-25T09:33:46.060Z,6.30
2023-02-25T09:36:15.930Z,15.20
2023-02-25T09:38:44.834Z,9.50
2023-02-25T09:41:33.944Z,13.00
2023-02-25T09:44:21.344Z,10.10
2023-02-25T09:47:16.413Z,6.10
2023-02-25T09:50:08.785Z,12.70
2023-02-25T09:52:43.015Z,15.90
2023-02-25T09:55:24.386Z,6.40
2023-02-25T09:58:04.532Z,16.10
2023-02-25T10:00:36.623Z,7.60
2023-02-25T10:03:17.087Z,5.60
2023-02-25T10:05:54.787Z,6.60
2023-02-25T10:08:21.689Z,8.60
2023-02-25T10:11:07.315Z,4.70
2023-02-25T10:13:54.478Z,11.80
2023-02-25T10:16:21.350Z,8.60
2023-02-25T10:18:48.309Z,9.50
2023-02-25T10:21:44.117Z,8.10
2023-02-25T10:24:26.831Z,12.90
2023-02-25T10:27:00.528Z,11.40
2023-02-25T10:29:38.949Z,6.60
2023-02-25T10:32:24.735Z,8.10
2023-02-25T10:34:54.411Z,7.60
2023-02-25T10:37:27.428Z,5.70
2023-02-25T10:40:04.327Z,7.30
2023-02-25T10:42:32.035Z,3.90
2023-02-25T10:45:08.826Z,6.30
2023-02-25T10:47:41.071Z,5.50
2023-02-25T10:50:42.817Z,9.10
2023-02-25T10:53:18.248Z,6.40
2023-02-25T10:55:51.857Z,8.80
2023-02-25T10:58:44.835Z,8.70
2023-02-25T11:01:16.433Z,6.10
2023-02-25T11:03:54.898Z,4.70
2023-02-25T11:06:31.396Z,4.20
2023-02-25T11:09:05.400Z,5.50
2023-02-25T11:11:37.342Z,4.00
2023-02-25T11:14:16.571Z,3.50
2023-02-25T11:16:45.870Z,4.90
2023-02-25T11:19:23.178Z,4.00
2023-02-25T11:21:51.643Z,3.90
2023-02-25T11:24:31.556Z,3.60
2023-02-25T11:26:59.350Z,4.70
2023-02-25T11:29:38.631Z,4.80
2023-02-25T11:32:10.903Z,4.60
2023-02-25T11:34:49.435Z,2.50
2023-02-25T11:37:40.919Z,4.00
2023-02-25T11:40:34.172Z,6.20
2023-02-25T11:46:04.889Z,5.20
2023-02-25T11:49:02.629Z,5.80
2023-02-25T11:51:47.483Z,8.70
2023-02-25T11:54:36.668Z,7.80
2023-02-25T11:57:18.540Z,7.70
2023-02-25T12:00:18.916Z,8.90
2023-02-25T12:03:10.554Z,16.40
2023-02-25T12:05:37.549Z,7.10
2023-02-25T12:08:58.741Z,6.30
2023-02-25T12:11:50.705Z,9.10
2023-02-25T12:14:29.600Z,4.80
2023-02-25T12:17:44.357Z,7.80
2023-02-25T12:20:31.592Z,7.50
2023-02-25T12:23:40.032Z,9.00
2023-02-25T12:26:15.238Z,8.80
2023-02-25T12:29:09.818Z,14.20
2023-02-25T12:31:52.190Z,20.80
2023-02-25T12:34:58.401Z,20.10
2023-02-25T12:37:41.543Z,16.10
2023-02-25T12:40:14.188Z,16.90
2023-02-25T12:42:49.846Z,16.20
2023-02-25T12:45:32.260Z,10.50
2023-02-25T12:48:18.125Z,9.10
2023-02-25T12:51:32.585Z,9.80
2023-02-25T12:54:34.953Z,10.00
2023-02-25T12:57:30.777Z,9.80
2023-02-25T13:00:18.949Z,7.50
2023-02-25T13:03:21.490Z,5.50
2023-02-25T13:06:01.953Z,3.50
2023-02-25T13:08:34.865Z,7.00
2023-02-25T13:12:11.115Z,3.90
2023-02-25T13:14:58.681Z,3.90
2023-02-25T13:17:50.863Z,3.70
2023-02-25T13:20:55.380Z,4.60
2023-02-25T13:23:41.188Z,1.80
2023-02-25T13:26:08.108Z,3.50
2023-02-25T13:28:45.703Z,3.40
2023-02-25T13:31:44.771Z,2.50
2023-02-25T13:34:34.683Z,3.50
2023-02-25T13:37:23.264Z,2.20
2023-02-25T13:39:54.591Z,1.90
2023-02-25T13:42:50.107Z,2.90
2023-02-25T13:45:31.950Z,5.10
2023-02-25T13:48:29.874Z,3.40
2023-02-25T13:51:10.624Z,2.80
2023-02-25T13:54:14.745Z,2.30
2023-02-25T13:56:57.676Z,1.90
2023-02-25T13:59:33.832Z,1.90
2023-02-25T14:02:32.538Z,3.10
2023-02-25T14:05:24.170Z,2.40
2023-02-25T14:08:10.548Z,3.10
2023-02-25T14:11:05.948Z,2.20
2023-02-25T14:14:01.018Z,2.10
2023-02-25T14:16:36.987Z,3.40
2023-02-25T14:19:19.987Z,3.10
2023-02-25T14:22:11.828Z,3.50
2023-02-25T14:25:08.671Z,3.50
2023-02-25T14:27:58.265Z,2.60
2023-02-25T14:30:39.955Z,3.20
2023-02-25T14:33:28.266Z,3.20
2023-02-25T14:36:05.876Z,4.40
2023-02-25T14:39:06.186Z,3.60
2023-02-25T14:41:53.094Z,3.90
2023-02-25T14:44:35.662Z,4.20
2023-02-25T14:47:25.064Z,5.50
2023-02-25T14:50:12.951Z,4.20
2023-02-25T14:52:45.502Z,4.40
2023-02-25T14:55:31.181Z,4.70
2023-02-25T14:58:17.061Z,2.60
2023-02-25T15:00:59.649Z,3.20
2023-02-25T15:04:03.972Z,4.30
2023-02-25T15:06:36.994Z,3.90
2023-02-25T15:09:47.437Z,4.10
2023-02-25T15:12:22.264Z,2.80
2023-02-25T15:15:17.248Z,3.70
2023-02-25T15:17:44.505Z,2.60
2023-02-25T15:20:23.933Z,4.40
2023-02-25T15:23:20.111Z,3.30
2023-02-25T15:25:50.119Z,2.30
2023-02-25T15:28:29.264Z,4.00
2023-02-25T15:30:59.082Z,1.70
2023-02-25T15:33:39.911Z,2.10
2023-02-25T15:36:15.551Z,3.00
2023-02-25T15:38:55.849Z,2.60
2023-02-25T15:41:35.116Z,3.50
2023-02-25T15:44:08.025Z,3.70
2023-02-25T15:46:35.279Z,2.30
2023-02-25T15:49:10.620Z,2.10
2023-02-25T15:52:04.426Z,2.60
2023-02-25T15:54:31.509Z,3.70
2023-02-25T15:57:00.535Z,3.50
2023-02-25T15:59:55.712Z,4.20
2023-02-25T16:02:35.067Z,2.10
2023-02-25T16:05:13.876Z,3.40
2023-02-25T16:07:45.027Z,2.80
2023-02-25T16:10:15.931Z,4.00
2023-02-25T16:12:43.909Z,2.60
2023-02-25T16:15:33.236Z,3.60
2023-02-25T16:18:16.285Z,2.50
2023-02-25T16:20:48.513Z,4.10
2023-02-25T16:23:16.934Z,3.90
2023-02-25T16:26:19.106Z,2.00
2023-02-25T16:29:01.097Z,4.20
2023-02-25T16:31:31.771Z,4.90
2023-02-25T16:34:27.445Z,5.70
2023-02-25T16:37:00.353Z,9.10
2023-02-25T16:39:30.552Z,9.30
2023-02-25T16:42:04.190Z,10.00
2023-02-25T16:44:38.482Z,8.10
2023-02-25T16:47:20.662Z,9.50
2023-02-25T16:49:48.741Z,7.30
2023-02-25T16:52:19.781Z,4.60
2023-02-25T16:57:22.149Z,6.00
2023-02-25T16:59:51.062Z,6.30
2023-02-25T17:02:18.224Z,5.50
2023-02-25T17:04:58.846Z,7.40
2023-02-25T17:07:28.120Z,6.30
2023-02-25T17:10:04.353Z,6.40
2023-02-25T17:12:41.681Z,4.70
2023-02-25T17:15:17.321Z,6.50
2023-02-25T17:17:45.753Z,6.00
2023-02-25T17:20:19.842Z,10.00
2023-02-25T17:22:46.978Z,10.30
2023-02-25T17:25:16.473Z,8.80
2023-02-25T17:27:45.881Z,7.10
2023-02-25T17:30:36.297Z,4.40
2023-02-25T17:33:04.720Z,6.70
2023-02-25T17:35:32.868Z,5.60
2023-02-25T17:38:00.199Z,4.20
2023-02-25T17:40:29.390Z,6.70
2023-02-25T17:43:24.469Z,5.60
2023-02-25T17:46:01.457Z,3.80
2023-02-25T17:48:32.757Z,3.90
2023-02-25T17:51:06.162Z,2.80
2023-02-25T17:53:58.427Z,3.70
2023-02-25T17:56:28.952Z,4.80
2023-02-25T17:59:01.896Z,6.10
2023-02-25T18:01:46.840Z,3.50
2023-02-25T18:04:23.788Z,4.70
2023-02-25T18:06:51.569Z,4.20
2023-02-25T18:09:40.181Z,3.80
2023-02-25T18:12:19.421Z,3.10
2023-02-25T18:14:51.494Z,3.50
2023-02-25T18:17:33.593Z,3.50
2023-02-25T18:20:07.125Z,3.10
2023-02-25T18:22:39.869Z,4.40
2023-02-25T18:25:40.400Z,4.50
2023-02-25T18:28:13.268Z,7.40
2023-02-25T18:30:40.300Z,7.50
2023-02-25T18:33:08.730Z,10.50
2023-02-25T18:35:38.309Z,9.80
2023-02-25T18:38:05.130Z,10.20
2023-02-25T18:40:37.803Z,11.90
2023-02-25T18:43:05.886Z,9.40
2023-02-25T18:45:34.785Z,8.10
2023-02-25T18:48:02.162Z,10.20
2023-02-25T18:50:31.720Z,10.00
2023-02-25T18:52:59.375Z,8.40
2023-02-25T18:55:30.021Z,9.00
2023-02-25T18:57:57.981Z,10.20
2023-02-25T19:00:30.330Z,7.90
2023-02-25T19:03:00.194Z,9.70
2023-02-25T19:05:28.199Z,6.70
2023-02-25T19:07:56.508Z,14.30
2023-02-25T19:10:29.577Z,10.50
2023-02-25T19:13:33.113Z,9.00
2023-02-25T19:16:00.074Z,11.20
2023-02-25T19:18:27.493Z,6.10
2023-02-25T19:20:54.678Z,7.10
2023-02-25T19:23:22.091Z,6.30
2023-02-25T19:25:54.197Z,8.20
2023-02-25T19:28:21.101Z,6.80
2023-02-25T19:30:48.301Z,6.10
2023-02-25T19:33:16.151Z,8.70
2023-02-25T19:35:44.297Z,6.40
2023-02-25T19:38:20.945Z,6.40
2023-02-25T19:40:48.976Z,8.30
2023-02-25T19:43:16.998Z,6.10
2023-02-25T19:45:44.845Z,10.90
2023-02-25T19:48:12.024Z,10.10
2023-02-25T19:50:41.410Z,9.40
2023-02-25T19:53:09.504Z,11.50
2023-02-25T19:55:36.987Z,10.90
2023-02-25T19:58:03.882Z,9.30
2023-02-25T20:00:31.421Z,7.40
2023-02-25T20:02:58.701Z,8.10
2023-02-25T20:05:26.019Z,6.30
2023-02-25T20:07:53.468Z,7.20
2023-02-25T20:10:22.171Z,6.90
2023-02-25T20:12:49.773Z,10.00
2023-02-25T20:15:17.595Z,6.50
2023-02-25T20:17:45.993Z,7.30
2023-02-25T20:20:14.626Z,8.90
2023-02-25T20:22:42.303Z,7.00
2023-02-25T20:25:11.093Z,10.70
2023-02-25T20:27:40.024Z,10.10
2023-02-25T20:30:08.545Z,14.30
2023-02-25T20:32:35.735Z,12.60
2023-02-25T20:35:03.468Z,13.90
2023-02-25T20:37:39.426Z,13.30
2023-02-25T20:40:12.180Z,15.50
2023-02-25T20:42:39.508Z,15.70
2023-02-25T20:45:07.422Z,18.70
2023-02-25T20:47:36.581Z,19.20
2023-02-25T20:50:06.713Z,13.20
2023-02-25T20:52:34.527Z,11.80
2023-02-25T20:55:01.765Z,14.10
2023-02-25T20:57:29.036Z,12.90
2023-02-25T20:59:56.066Z,10.40
2023-02-25T21:02:23.707Z,7.00
2023-02-25T21:04:51.791Z,11.80
2023-02-25T21:07:18.807Z,8.80
2023-02-25T21:09:46.000Z,8.70
2023-02-25T21:12:12.999Z,9.70
2023-02-25T21:14:40.060Z,9.00
2023-02-25T21:17:09.834Z,7.80
2023-02-25T21:19:38.990Z,10.10
2023-02-25T21:22:07.349Z,6.80
2023-02-25T21:24:34.928Z,8.70
2023-02-25T21:27:02.262Z,8.60
2023-02-25T21:29:29.285Z,8.40
2023-02-25T21:31:56.994Z,6.20
2023-02-25T21:34:24.023Z,7.90
2023-02-25T21:36:51.142Z,7.10
2023-02-25T21:39:18.590Z,9.10
2023-02-25T21:41:45.637Z,7.50
2023-02-25T21:44:13.038Z,8.30
2023-02-25T21:46:41.273Z,10.30
2023-02-25T21:49:10.868Z,10.00
2023-02-25T21:51:38.221Z,8.70
2023-02-25T21:54:05.268Z,9.60
2023-02-25T21:56:32.633Z,6.80
2023-02-25T21:59:03.487Z,6.40
2023-02-25T22:01:33.438Z,8.30
2023-02-25T22:04:00.643Z,9.00
2023-02-25T22:06:28.722Z,7.40
2023-02-25T22:08:57.267Z,6.70
2023-02-25T22:11:32.210Z,7.80
2023-02-25T22:14:01.224Z,9.80
2023-02-25T22:16:28.884Z,11.70
2023-02-25T22:18:56.901Z,10.20
2023-02-25T22:21:29.355Z,10.20
2023-02-25T22:23:59.439Z,10.40
2023-02-25T22:26:32.180Z,10.30
2023-02-25T22:29:02.038Z,12.70
2023-02-25T22:31:29.456Z,11.10
2023-02-25T22:33:57.644Z,12.10
2023-02-25T22:36:25.408Z,13.60
2023-02-25T22:38:53.640Z,9.50
2023-02-25T22:41:26.205Z,10.00
2023-02-25T22:43:53.512Z,7.50
2023-02-25T22:46:27.355Z,9.80
2023-02-25T22:48:59.963Z,11.10
2023-02-25T22:51:33.158Z,10.40
2023-02-25T22:54:01.032Z,10.20
2023-02-25T22:56:28.792Z,11.10
2023-02-25T22:58:56.158Z,12.50
2023-02-25T23:01:25.452Z,14.10
2023-02-25T23:03:53.626Z,14.60
2023-02-25T23:06:34.322Z,17.30
2023-02-25T23:09:09.232Z,14.70
2023-02-25T23:11:36.270Z,17.00
2023-02-25T23:14:04.401Z,12.30
2023-02-25T23:16:36.036Z,15.80
2023-02-25T23:19:05.062Z,14.60
2023-02-25T23:21:35.271Z,11.80
2023-02-25T23:24:05.192Z,9.00
2023-02-25T23:26:38.046Z,7.40
2023-02-25T23:29:06.925Z,10.10
2023-02-25T23:31:37.552Z,8.70
2023-02-25T23:34:10.326Z,9.90
2023-02-25T23:36:39.083Z,8.50
2023-02-25T23:39:07.275Z,8.40
2023-02-25T23:41:35.613Z,12.70
2023-02-25T23:44:03.555Z,11.00
2023-02-25T23:46:32.192Z,12.30
2023-02-25T23:49:02.644Z,12.30
2023-02-25T23:51:30.677Z,9.70
2023-02-25T23:54:01.584Z,9.30
2023-02-25T23:56:31.135Z,8.90
2023-02-25T23:58:58.491Z,8.30
